Aérodrome :
LOGIN :

S'inscrire | Disclaimer

   EN    FR    IT 

 










Légende :    VFR   VFR Marginal   IFR   IFR Intensif   IFR Très Intensif
Visi : 
Plafond : 
>= 8 km
>= 3000ft
5 à 8 km
1000 à 3000 ft
1500m à 5 km
500 à 1000 ft
800 à 1500m
200 à 500 ft
< 800m
< 200 ft
Symboles :   Orages  Brouillard  Fortes neiges  Fortes précipitations  Vent > 20 kt
SIGMETs :   Divers  Orages  Givrage  Turbulence  Onde Orograph.  Cendres Volcan.







- Altitude de l'aérodrome : 821 ft
- Code IATA : LYS
- Voir les cartes d'approche


LFLL - Lyon St Exupéry / Satolas

DERNIER METAR :
  • 171300Z VRB03KT CAVOK 25/11 Q1017 NOSIG

METARs EXPIRÉS :
  • 171230Z 29004KT 220V020 CAVOK 25/13 Q1017 NOSIG
  • 171200Z 32003KT 230V040 CAVOK 24/13 Q1017 NOSIG
  • 171130Z VRB03KT CAVOK 24/14 Q1017 NOSIG
  • 171100Z VRB03KT CAVOK 23/14 Q1017 NOSIG
  • 171030Z VRB01KT CAVOK 22/13 Q1018 NOSIG
  • 171000Z VRB02KT CAVOK 21/14 Q1018 NOSIG

TAF TAF LFLL
Valide du 17 à 12h jusqu'au 18 à 18h UTC


171100Z 1712/1818 36005KT CAVOK
BECMG 1719/1721 VRB02KT
BECMG 1809/1811 18012KT
Pas de NOTAMs connus pour ce terrain.



MET'MAP, la Météo Aéronautique d'un coup d'oeil ! - Copyright ORBIFLY Décembre 2007 - Disclaimer

ORBIFLY MET'MAP TEAM :

Programmation & Développement : Alexandra Zaïnal
Conception & Développement : Baudouin d'Aumeries
Co-Programmation & Développement : Marc-Olivier Méhu
Soutien technique & logistique : Manuel Goepfert

Contact : metmap@orbifly.com




SOURCES & CREDITS :

   NOAA